Leadville, CO

7:12 AM MDT on April 28, 2015 (GMT -0600)
Lake County | | Change Station
CLOSE
Current Station
Airport
Location: Leadville,
Elevation: 9928 ft
Nearby Weather Stations

Elev 9928 ft 39.23 °N, 106.32 °W | Updated 19 minutes ago

Mostly Cloudy
Mostly Cloudy
26 °F
Feels Like 26 °F
N
0
Wind Variable Wind from North

Today
High -- | Low -- °F
--% Chance of Precip.
Yesterday
High -- | Low -- °F
Precip. -- in
6:10 AM 7:55 PM
Waxing Gibbous, 73% visible
Pressure 30.21 in
Visibility 10.0 miles
Clouds Overcast 1900 ft
Dew Point 21 °F
Humidity 81%
Rainfall 0.00 in
Snow Depth Not available.
UV 0 out of 12
Pollen 3.20 out of 12
Air Quality Not available.
Flu Activity Sporadic
METAR KLXV 281253Z AUTO 00000KT 10SM OVC019 M03/M06 A3038 RMK AO2 SLP228 T10331061

More Conditions Fewer Conditions

Pressure 30.21 in
Visibility 10.0 miles
Clouds Overcast 1900 ft
Dew Point 21 °F
Humidity 81%
Rainfall 0.00 in
Snow Depth Not available.
UV 0 out of 12
Pollen 3.20 out of 12
Air Quality Not available.
Flu Activity Sporadic
METAR KLXV 281253Z AUTO 00000KT 10SM OVC019 M03/M06 A3038 RMK AO2 SLP228 T10331061

More Conditions Fewer Conditions

10-Day Weather Forecast

Almanac

Astronomy

Apr. 28, 2015 Rise Set
Actual Time
Civil Twilight
Nautical Twilight
Astronomical Twilight
Moon
Length of Visible Light
Length of Day
Tomorrow will be .
, % of the Moon is Illuminated

Today's Extremes

State Highs State Lows

Community

WunderPhotos

Upload Photos

1,817,622 photos uploaded!

WunderBlogs® & News

Nearby

Air Quality

  Air Quality AQ Index Pollutant
Not available.

Snow Depth

Station Depth Elevation

Earthquake Activity

City Distance Mag. Time & Date
Minimum magnitude displayed is 2.5.

Coastal Water Temperatures

Place Temperature

Stations

Nearby Weather Stations

Station Location Temp. Windchill Dew Point Humidity Wind Precip. Elev Updated Type